White Springs, Florida
Current Conditions -  °F | °C
As of 4:35 PM on Friday 28 Nov 2014 (Local Time) from KLCQ Reporting Station
Clear Clear  
Wind Chill: 52°   Ceiling: Unl
Heat Index: 52°   Visibility: 10mi
Dew Point: 32°   Wind: 7mph
Humidity: 47%   Direction: 10°N
Pressure: 30.29"   Gusts: NA
Location:  30.33°N, 82.76°W
Report Text: KLCQ 282135Z AUTO 01006KT 10SM CLR 11/00 A3029 RMK AO2
Loading
Personal Weather Stations






























Interactive Weather Map New forecast layout! Learn more

10-Day Weather Forecast

Advertisements
Track Severe Weather on mobile